• Join FlightAware (Why Join?)
  • Login
  • US Flag 
09:13AM EDT


 

Airport Tracker/Info


-or-


 

Live Flight TrackerFlight Track Log ✈ SWA2236 ✈ 12-Jul-2013 ✈ KOAK - KLAS

Flight Track Log - Related Links

Times and Time Zones

All times are in EDT time to prevent confusion due to time zone crossing. See the SWA2236 flight status page for this flight to view local times or setup timezone preferences in your user account.

Time Position Orientation Groundspeed Altitude Reporting Facility
EDT Latitude Longitude Course Direction KTS MPH feet Rate Location/Type
12:13PM 37.7167 -122.2500 322° Northwest 158 182 600  Level Northern Cal TRACON
12:14PM 37.7500 -122.2833 322° Northwest 213 245 2,500 2,460 Climbing Northern Cal TRACON
12:15PM 37.7667 -122.3667 284° West 234 269 5,300 3,120 Climbing Northern Cal TRACON
12:16PM 37.7000 -122.4000 202° Southwest 238 274 8,800 2,880 Climbing Northern Cal TRACON
12:17PM 37.6333 -122.4000 180° South 282 325 11,100 2,580 Climbing Northern Cal TRACON
12:18PM 37.5578 -122.4064 184° South 292 336 13,800 3,000 Climbing Oakland Center
12:19PM 37.4694 -122.4172 186° South 313 360 17,000 2,580 Climbing Oakland Center
12:20PM 37.4131 -122.3358 131° Southeast 337 388 19,100 1,980 Climbing Oakland Center
12:21PM 37.3869 -122.2044 104° East 384 442 21,100 2,040 Climbing Oakland Center
12:22PM 37.3594 -122.0667 104° East 404 465 23,400 2,160 Climbing Oakland Center
12:23PM 37.3308 -121.9250 104° East 418 481 25,600 1,980 Climbing Oakland Center
12:24PM 37.3022 -121.7806 104° East 428 493 27,500 2,220 Climbing Oakland Center
12:25PM 37.2656 -121.5986 104° East 444 511 30,200 2,220 Climbing Oakland Center
12:26PM 37.2347 -121.4489 104° East 444 511 32,100 1,320 Climbing Oakland Center
12:27PM 37.2044 -121.3011 104° East 441 507 33,000 420 Climbing Oakland Center
12:28PM 37.1733 -121.1531 105° East 440 506 33,000  Level Oakland Center
12:29PM 37.1419 -121.0042 105° East 443 510 33,000  Level Oakland Center
12:30PM 37.1111 -120.8575 105° East 438 504 33,000  Level Oakland Center
12:31PM 37.0789 -120.7111 105° East 437 503 33,000  Level Oakland Center
12:32PM 37.0414 -120.5336 105° East 439 505 33,000  Level Oakland Center
12:33PM 37.0094 -120.3867 105° East 437 503 33,000  Level Oakland Center
12:34PM 36.9975 -120.2350 96° East 439 505 33,000  Level Oakland Center
12:35PM 37.0172 -120.0844 81° East 450 518 33,000  Level Oakland Center
12:36PM 37.0081 -119.9231 94° East 459 528 33,000  Level Oakland Center
12:37PM 36.9994 -119.7597 94° East 470 541 33,000  Level Oakland Center
12:38PM 36.9883 -119.5639 94° East 470 541 33,000  Level Oakland Center
12:39PM 36.9792 -119.3978 94° East 476 548 33,000  Level Oakland Center
12:40PM 36.9706 -119.2325 94° East 476 548 33,000  Level Oakland Center
12:41PM 36.9600 -119.0664 94° East 478 550 33,000  Level Oakland Center
12:43PM 36.9500 -118.9011 94° East 478 550 33,000  Level Oakland Center
12:44PM 36.9403 -118.7361 94° East 478 550 33,000  Level Oakland Center
12:45PM 36.9297 -118.5706 95° East 478 550 33,000  Level Oakland Center
12:46PM 36.9172 -118.3631 94° East 477 549 33,000  Level Los Angeles Center
12:47PM 36.9067 -118.1978 95° East 479 551 33,000  Level Los Angeles Center
12:48PM 36.8969 -118.0672 95° East 473 544 33,000 -600 Level Oakland Center
12:49PM 36.8839 -117.8717 95° East 471 542 31,900 -1,020 Descending Oakland Center
12:50PM 36.8719 -117.7053 95° East 478 550 31,000 -480 Descending Oakland Center
12:51PM 36.8606 -117.5411 95° East 478 550 31,000  Level Oakland Center
12:52PM 36.8489 -117.3789 95° East 473 544 31,000  Level Oakland Center
12:53PM 36.8372 -117.2197 95° East 467 537 31,000  Level Oakland Center
12:54PM 36.8239 -117.0583 96° East 466 536 31,000  Level Oakland Center
12:55PM 36.8119 -116.8975 95° East 467 537 31,000  Level Oakland Center
12:56PM 36.7625 -116.6950 107° East 441 507 31,000 -840 Level Los Angeles Center
12:57PM 36.6850 -116.5822 131° Southeast 425 489 29,100 -2,040 Descending Los Angeles Center
12:58PM 36.6097 -116.4747 131° Southeast 414 476 26,900 -2,100 Descending Los Angeles Center
12:59PM 36.5358 -116.3675 131° Southeast 410 472 24,800 -2,100 Descending Los Angeles Center
01:00PM 36.4611 -116.2642 132° Southeast 405 466 22,600 -2,280 Descending Los Angeles Center
01:01PM 36.3783 -116.1464 131° Southeast 389 448 20,200 -2,100 Descending Los Angeles Center
01:02PM 36.3156 -116.0594 132° Southeast 371 427 18,400 -1,980 Descending Los Angeles Center
01:03PM 36.2522 -115.9731 132° Southeast 367 422 16,500 -1,200 Descending Los Angeles Center
01:04PM 36.1900 -115.8625 125° Southeast 345 397 16,000 -540 Descending Los Angeles Center
01:05PM 36.1506 -115.7439 112° Southeast 321 369 15,400 -720 Descending Los Angeles Center
01:06PM 36.1231 -115.6581 112° Southeast 324 373 14,600 -720 Descending Los Angeles Center
01:07PM 36.0814 -115.5333 112° Southeast 313 360 14,000 -840 Descending Los Angeles Center
01:08PM 36.0614 -115.4497 106° East 321 369 12,900 -1,500 Descending Los Angeles Center
01:09PM 36.0433 -115.3464 102° East 307 353 11,300 -1,560 Descending Los Angeles Center
01:10PM 36.0244 -115.2383 102° East 299 344 9,600 -1,500 Descending Los Angeles Center
01:12PM 36.0128 -115.1253 97° East 287 330 8,000 -840 Descending Los Angeles Center
01:12PM 36.0081 -115.0444 94° East 246 283 8,000 -360 Level Los Angeles Center
01:14PM 36.0094 -114.9722 89° East 198 228 7,300 -900 Descending Los Angeles Center
01:14PM 36.0131 -114.9097 86° East 196 226 6,300 -1,140 Descending Los Angeles Center
01:15PM 36.0619 -114.9147 355° North 194 223 5,200 -900 Descending Los Angeles Center
01:16PM 36.0717 -114.9364 299° West 197 227 5,000 -720 Descending Los Angeles Center
01:17PM 36.0739 -114.9800 274° West 195 224 4,400 -1,020 Descending Los Angeles Center
01:18PM 36.0725 -115.0522 269° West 178 205 3,300 -960 Descending Los Angeles Center
01:19PM 36.0733 -115.1053 271° West 152 175 2,400 -900 Descending Los Angeles Center
01:21PM 36.0667 -115.1500 270° West  Level FlightAware Approximate
01:28PM 36.0801 -115.1523 270° West  Level Estimated